Time;durP1;ratioP1;P1;durP2;ratioP2;P2;SDS_P1;SDS_P2;PMS_P1;PMS_P2;Temp;Humidity;BMP_temperature;BMP_pressure;BME280_temperature;BME280_humidity;BME280_pressure;Samples;Min_cycle;Max_cycle;Signal;HPM_P1;HPM_P2
2021/01/22 00:01:28;;;;;;;4.22;0.90;;;5.80;99.90;;;;;;4970427;28;20206;-72
2021/01/22 00:03:55;;;;;;;5.80;0.70;;;5.70;99.90;;;;;;4969352;28;20260;-71
2021/01/22 00:06:21;;;;;;;6.18;0.88;;;5.70;99.90;;;;;;4972835;28;20320;-71
2021/01/22 00:08:48;;;;;;;5.85;0.90;;;5.70;99.90;;;;;;4972482;28;20213;-72
2021/01/22 00:11:15;;;;;;;4.22;0.70;;;5.60;99.90;;;;;;4951171;28;20709;-71
2021/01/22 00:13:42;;;;;;;1.98;0.43;;;5.60;99.90;;;;;;4967876;28;20313;-72
2021/01/22 00:16:08;;;;;;;3.92;0.55;;;5.60;99.90;;;;;;4951572;28;20659;-72
2021/01/22 00:18:35;;;;;;;5.93;0.60;;;5.60;99.90;;;;;;4972244;28;20206;-72
2021/01/22 00:21:01;;;;;;;2.30;0.52;;;5.50;99.90;;;;;;4972024;28;20268;-72
2021/01/22 00:23:29;;;;;;;3.53;0.57;;;5.50;99.90;;;;;;4971953;28;20571;-72
2021/01/22 00:25:56;;;;;;;1.13;0.60;;;5.50;99.90;;;;;;4970776;28;20217;-72
2021/01/22 00:28:22;;;;;;;6.05;0.60;;;5.50;99.90;;;;;;4970111;28;20207;-72
2021/01/22 00:30:49;;;;;;;3.80;0.52;;;5.50;99.90;;;;;;4967872;28;20198;-72
2021/01/22 00:33:15;;;;;;;3.70;0.68;;;5.50;99.90;;;;;;4955659;28;20218;-72
2021/01/22 00:35:41;;;;;;;1.65;0.65;;;5.40;99.90;;;;;;4969763;28;20202;-72
2021/01/22 00:38:07;;;;;;;4.18;0.65;;;5.40;99.90;;;;;;4972836;28;20661;-72
2021/01/22 00:40:34;;;;;;;8.50;0.60;;;5.40;99.90;;;;;;4965880;28;20225;-71
2021/01/22 00:43:01;;;;;;;9.20;0.85;;;5.40;99.90;;;;;;4969440;28;20201;-71
2021/01/22 00:45:28;;;;;;;7.75;0.80;;;5.40;99.90;;;;;;4947641;28;20221;-72
2021/01/22 00:47:55;;;;;;;6.72;0.80;;;5.40;99.90;;;;;;4953908;28;20202;-72
2021/01/22 00:50:21;;;;;;;8.25;0.80;;;5.40;99.90;;;;;;4954179;28;20720;-72
2021/01/22 00:52:48;;;;;;;5.65;0.80;;;5.50;99.90;;;;;;4953070;28;20214;-72
2021/01/22 00:55:15;;;;;;;7.47;0.70;;;5.50;99.90;;;;;;4971429;28;20206;-72
2021/01/22 00:57:55;;;;;;;6.97;1.00;;;5.50;99.90;;;;;;4971555;28;20670;-72
2021/01/22 01:00:28;;;;;;;7.45;0.90;;;5.50;99.90;;;;;;4952931;28;20248;-72
2021/01/22 01:03:17;;;;;;;5.00;0.63;;;5.50;99.90;;;;;;4954106;28;20553;-73
2021/01/22 01:05:44;;;;;;;7.80;0.80;;;5.50;99.90;;;;;;4967322;28;20237;-72
2021/01/22 01:08:11;;;;;;;7.22;0.82;;;5.50;99.90;;;;;;4965171;28;20202;-72
2021/01/22 01:10:57;;;;;;;5.30;0.77;;;5.50;99.90;;;;;;4973425;28;20670;-72
2021/01/22 01:13:54;;;;;;;3.72;0.80;;;5.50;99.90;;;;;;4958838;28;20213;-72
2021/01/22 01:16:25;;;;;;;6.03;0.70;;;5.50;99.90;;;;;;4975779;28;20200;-72
2021/01/22 01:18:51;;;;;;;8.80;0.90;;;5.50;99.90;;;;;;4973677;28;20213;-72
2021/01/22 01:21:18;;;;;;;5.57;0.77;;;5.40;99.90;;;;;;4972608;28;20210;-72
2021/01/22 01:23:44;;;;;;;3.58;0.75;;;5.50;99.90;;;;;;4971275;28;20202;-72
2021/01/22 01:26:10;;;;;;;4.53;0.60;;;5.40;99.90;;;;;;4972496;28;20201;-72
2021/01/22 01:28:37;;;;;;;4.28;0.70;;;5.40;99.90;;;;;;4967654;28;20209;-72
2021/01/22 01:31:03;;;;;;;4.68;0.82;;;5.40;99.90;;;;;;4965886;28;20198;-71
2021/01/22 01:33:31;;;;;;;7.10;0.90;;;5.40;99.90;;;;;;4966466;28;20236;-72
2021/01/22 01:36:01;;;;;;;5.68;0.88;;;5.40;99.90;;;;;;4964660;28;20554;-72
2021/01/22 01:38:28;;;;;;;5.00;0.82;;;5.40;99.90;;;;;;4979394;28;20206;-72
2021/01/22 01:40:54;;;;;;;9.00;0.70;;;5.50;99.90;;;;;;4955748;28;20682;-71
2021/01/22 01:43:20;;;;;;;10.02;1.23;;;5.40;99.90;;;;;;4974688;28;20210;-72
2021/01/22 01:45:47;;;;;;;4.25;0.88;;;5.50;99.90;;;;;;4975316;28;20263;-72
2021/01/22 01:48:14;;;;;;;6.95;0.70;;;5.50;99.90;;;;;;4972894;28;20202;-72
2021/01/22 01:50:41;;;;;;;10.98;1.10;;;5.50;99.90;;;;;;4971346;28;20199;-72
2021/01/22 01:53:08;;;;;;;8.75;0.90;;;5.50;99.90;;;;;;4971785;28;20206;-73
2021/01/22 01:55:35;;;;;;;13.70;1.35;;;5.50;99.90;;;;;;4967539;28;20209;-72
2021/01/22 01:58:03;;;;;;;8.45;1.13;;;5.50;99.90;;;;;;4968571;28;20224;-72
2021/01/22 02:00:29;;;;;;;6.70;1.20;;;5.60;99.90;;;;;;4965897;28;20221;-72
2021/01/22 02:02:56;;;;;;;7.50;1.10;;;5.60;99.90;;;;;;4950089;28;20225;-73
2021/01/22 02:05:22;;;;;;;12.30;1.30;;;5.60;99.90;;;;;;4964294;28;20589;-71
2021/01/22 02:07:49;;;;;;;10.27;1.27;;;5.60;99.90;;;;;;4952900;28;21072;-72
2021/01/22 02:10:16;;;;;;;11.43;1.27;;;5.60;99.90;;;;;;4968062;28;20586;-72
2021/01/22 02:12:43;;;;;;;8.43;1.13;;;5.60;99.90;;;;;;4973687;28;20249;-72
2021/01/22 02:15:13;;;;;;;10.65;1.52;;;5.60;99.90;;;;;;4970172;28;20613;-72
2021/01/22 02:17:41;;;;;;;15.80;1.40;;;5.70;99.90;;;;;;4968145;28;20206;-71
2021/01/22 02:20:21;;;;;;;10.45;1.63;;;5.70;99.90;;;;;;4969797;28;20232;-72
2021/01/22 02:22:48;;;;;;;9.20;1.33;;;5.70;99.90;;;;;;4967017;28;20724;-72
2021/01/22 02:25:18;;;;;;;13.52;1.25;;;5.80;99.90;;;;;;4967944;28;20197;-72
2021/01/22 02:27:46;;;;;;;15.77;1.77;;;5.80;99.90;;;;;;4946548;28;20377;-72
2021/01/22 02:30:13;;;;;;;14.27;2.45;;;5.80;99.90;;;;;;4971404;28;20261;-72
2021/01/22 02:32:44;;;;;;;13.55;1.98;;;5.80;99.90;;;;;;4974979;28;20206;-72
2021/01/22 02:35:18;;;;;;;9.95;2.03;;;5.80;99.90;;;;;;4971538;28;20205;-72
2021/01/22 02:37:48;;;;;;;16.33;2.00;;;5.80;99.90;;;;;;4952562;28;20221;-72
2021/01/22 02:40:16;;;;;;;15.27;2.13;;;5.90;99.90;;;;;;4970623;28;20226;-72
2021/01/22 02:42:46;;;;;;;18.70;2.05;;;5.80;99.90;;;;;;4971181;28;20209;-72
2021/01/22 02:45:15;;;;;;;11.65;1.77;;;5.90;99.90;;;;;;4968284;28;20210;-72
2021/01/22 02:47:44;;;;;;;11.30;2.28;;;5.90;99.90;;;;;;4967220;28;20224;-72
2021/01/22 02:50:12;;;;;;;14.18;2.00;;;5.90;99.90;;;;;;4965272;28;20208;-72
2021/01/22 02:52:38;;;;;;;10.10;1.73;;;5.90;99.90;;;;;;4962009;28;20233;-72
2021/01/22 02:55:07;;;;;;;13.27;1.85;;;5.90;99.90;;;;;;4962943;28;20214;-72
2021/01/22 02:57:37;;;;;;;19.63;2.63;;;5.90;99.90;;;;;;4946202;28;20205;-72
2021/01/22 03:00:10;;;;;;;12.63;2.85;;;5.90;99.90;;;;;;4975434;28;20229;-73
2021/01/22 03:02:42;;;;;;;13.40;1.67;;;5.90;99.90;;;;;;4955922;28;20216;-73
2021/01/22 03:05:11;;;;;;;15.88;2.58;;;6.00;99.90;;;;;;4971857;28;20600;-72
2021/01/22 03:07:43;;;;;;;20.08;2.22;;;5.90;99.90;;;;;;4970526;28;20218;-74
2021/01/22 03:10:11;;;;;;;14.50;1.98;;;6.00;99.90;;;;;;4953040;28;20208;-74
2021/01/22 03:12:38;;;;;;;18.52;2.53;;;6.00;99.90;;;;;;4951997;28;20209;-74
2021/01/22 03:15:06;;;;;;;14.77;1.75;;;6.00;99.90;;;;;;4967424;28;20210;-73
2021/01/22 03:17:34;;;;;;;9.60;2.00;;;6.00;99.90;;;;;;4967550;28;20214;-73
2021/01/22 03:20:00;;;;;;;14.25;1.80;;;6.00;99.90;;;;;;4964387;28;20223;-73
2021/01/22 03:22:27;;;;;;;12.88;1.95;;;6.00;99.90;;;;;;4962620;28;20207;-74
2021/01/22 03:24:53;;;;;;;13.00;1.98;;;6.00;99.90;;;;;;4950457;28;20206;-74
2021/01/22 03:27:19;;;;;;;11.65;1.77;;;6.00;99.90;;;;;;4974918;28;20225;-74
2021/01/22 03:29:45;;;;;;;9.90;2.03;;;6.00;99.90;;;;;;4971302;28;20261;-74
2021/01/22 03:32:13;;;;;;;13.07;2.03;;;6.00;99.90;;;;;;4970263;28;20623;-75
2021/01/22 03:34:39;;;;;;;13.00;1.88;;;6.00;99.90;;;;;;4967795;28;20206;-74
2021/01/22 03:37:05;;;;;;;15.48;2.10;;;6.00;99.90;;;;;;4967870;28;20244;-75
2021/01/22 03:39:35;;;;;;;22.80;1.95;;;6.00;99.90;;;;;;4965367;28;20229;-74
2021/01/22 03:42:02;;;;;;;16.48;2.33;;;6.00;99.90;;;;;;4961317;28;20206;-74
2021/01/22 03:44:29;;;;;;;12.27;1.90;;;6.00;99.90;;;;;;4965668;28;20197;-74
2021/01/22 03:46:55;;;;;;;17.98;2.22;;;6.00;99.90;;;;;;4966348;28;20210;-74
2021/01/22 03:49:22;;;;;;;15.40;2.75;;;6.00;99.90;;;;;;4955178;28;20209;-73
2021/01/22 03:51:48;;;;;;;20.45;2.38;;;6.00;99.90;;;;;;4974116;28;20269;-72
2021/01/22 03:54:15;;;;;;;14.45;1.85;;;6.00;99.90;;;;;;4970289;28;20593;-73
2021/01/22 03:56:42;;;;;;;16.38;2.08;;;6.00;99.90;;;;;;4970132;28;20260;-72
2021/01/22 03:59:08;;;;;;;14.65;2.08;;;6.00;99.90;;;;;;4967705;28;20213;-73
2021/01/22 04:01:35;;;;;;;16.95;2.10;;;5.90;99.90;;;;;;4958502;28;20232;-73
2021/01/22 04:04:01;;;;;;;14.00;1.65;;;5.90;99.90;;;;;;4973964;28;20208;-72
2021/01/22 04:06:28;;;;;;;18.23;2.20;;;5.90;99.90;;;;;;4970713;28;20234;-73
2021/01/22 04:08:54;;;;;;;10.00;2.00;;;5.90;99.90;;;;;;4952512;28;20591;-72
2021/01/22 04:11:21;;;;;;;19.75;2.00;;;5.90;99.90;;;;;;4963738;28;20839;-74
2021/01/22 04:13:48;;;;;;;11.90;1.77;;;5.90;99.90;;;;;;4963082;28;20292;-75
2021/01/22 04:16:15;;;;;;;12.02;2.10;;;5.90;99.90;;;;;;4972407;28;20206;-72
2021/01/22 04:18:42;;;;;;;20.20;2.13;;;5.90;99.90;;;;;;4969895;28;20277;-72
2021/01/22 04:21:08;;;;;;;14.63;2.20;;;5.90;99.90;;;;;;4952968;28;20275;-72
2021/01/22 04:23:35;;;;;;;21.70;2.60;;;5.90;99.90;;;;;;4950353;28;20214;-75
2021/01/22 04:26:01;;;;;;;14.52;2.22;;;5.90;99.90;;;;;;4967383;28;20202;-75
2021/01/22 04:28:28;;;;;;;11.93;2.30;;;5.90;99.90;;;;;;4972746;28;20213;-74
2021/01/22 04:30:54;;;;;;;9.75;2.35;;;5.90;99.90;;;;;;4950080;28;20203;-74
2021/01/22 04:33:20;;;;;;;15.55;2.58;;;5.90;99.90;;;;;;4943812;28;20237;-73
2021/01/22 04:35:47;;;;;;;17.77;2.55;;;5.90;99.90;;;;;;4965112;28;20201;-74
2021/01/22 04:38:14;;;;;;;11.45;2.00;;;5.90;99.90;;;;;;4975458;28;20612;-74
2021/01/22 04:40:41;;;;;;;12.73;2.30;;;5.90;99.90;;;;;;4968898;28;20709;-74
2021/01/22 04:43:09;;;;;;;13.65;1.98;;;5.90;99.90;;;;;;4953737;28;20264;-73
2021/01/22 04:45:35;;;;;;;19.60;2.88;;;5.90;99.90;;;;;;4968571;28;20205;-74
2021/01/22 04:48:04;;;;;;;23.17;2.63;;;6.00;99.90;;;;;;4972691;28;20210;-73
2021/01/22 04:50:32;;;;;;;16.52;2.38;;;6.00;99.90;;;;;;4965138;28;20216;-74
2021/01/22 04:53:02;;;;;;;19.50;2.58;;;5.90;99.90;;;;;;4966241;28;20713;-74
2021/01/22 04:55:31;;;;;;;17.80;2.75;;;5.90;99.90;;;;;;4964577;28;20201;-71
2021/01/22 04:58:02;;;;;;;14.60;2.38;;;5.90;99.90;;;;;;4967541;28;20596;-74
2021/01/22 05:00:30;;;;;;;15.38;2.95;;;6.00;99.90;;;;;;4967697;28;20224;-73
2021/01/22 05:02:56;;;;;;;23.85;2.95;;;5.90;99.90;;;;;;4972704;28;20217;-74
2021/01/22 05:05:23;;;;;;;18.20;2.45;;;6.00;99.90;;;;;;4971833;28;20237;-73
2021/01/22 05:07:50;;;;;;;18.48;2.90;;;5.90;99.90;;;;;;4969961;28;20216;-74
2021/01/22 05:10:16;;;;;;;13.60;2.53;;;5.90;99.90;;;;;;4971237;28;20691;-75
2021/01/22 05:12:43;;;;;;;18.55;2.53;;;5.90;99.90;;;;;;4966898;28;20260;-73
2021/01/22 05:15:18;;;;;;;19.92;2.70;;;5.90;99.90;;;;;;4963416;28;20607;-73
2021/01/22 05:17:54;;;;;;;18.75;2.45;;;5.90;99.90;;;;;;4962447;28;20209;-74
2021/01/22 05:20:35;;;;;;;16.23;2.30;;;5.90;99.90;;;;;;4960420;28;20684;-73
2021/01/22 05:23:03;;;;;;;12.05;2.13;;;5.90;99.90;;;;;;4962509;28;20213;-73
2021/01/22 05:25:29;;;;;;;15.00;2.40;;;5.90;99.90;;;;;;4962861;28;20202;-72
2021/01/22 05:27:58;;;;;;;18.05;2.67;;;5.90;99.90;;;;;;4950255;28;20207;-73
2021/01/22 05:30:27;;;;;;;19.63;2.75;;;5.90;99.90;;;;;;4963251;28;20206;-73
2021/01/22 05:33:13;;;;;;;17.40;2.30;;;5.90;99.90;;;;;;4964207;28;20294;-73
2021/01/22 05:35:40;;;;;;;15.20;2.42;;;5.90;99.90;;;;;;4963222;28;20290;-73
2021/01/22 05:38:06;;;;;;;15.20;2.30;;;5.90;99.90;;;;;;4964548;28;20209;-72
2021/01/22 05:40:35;;;;;;;22.40;2.60;;;5.90;99.90;;;;;;4965162;28;20277;-74
2021/01/22 05:43:02;;;;;;;23.80;2.80;;;5.90;99.90;;;;;;4948541;28;20368;-73
2021/01/22 05:45:40;;;;;;;24.80;2.72;;;5.80;99.90;;;;;;4966683;28;20202;-73
2021/01/22 05:48:20;;;;;;;19.98;2.38;;;5.90;99.90;;;;;;4964426;28;20201;-75
2021/01/22 05:50:48;;;;;;;20.20;2.60;;;5.80;99.90;;;;;;4967810;28;20209;-74
2021/01/22 05:53:16;;;;;;;17.77;2.60;;;5.80;99.90;;;;;;4971727;28;20220;-73
2021/01/22 05:55:42;;;;;;;16.27;2.28;;;5.80;99.90;;;;;;4968501;28;20575;-73
2021/01/22 05:58:08;;;;;;;15.68;2.53;;;5.80;99.90;;;;;;4968664;28;20217;-73
2021/01/22 06:00:35;;;;;;;14.60;2.53;;;5.80;99.90;;;;;;4969202;28;20722;-73
2021/01/22 06:03:21;;;;;;;25.00;2.78;;;5.80;99.90;;;;;;4967900;28;20572;-73
2021/01/22 06:05:52;;;;;;;29.65;3.35;;;5.80;99.90;;;;;;4965548;28;20242;-73
2021/01/22 06:08:19;;;;;;;20.20;2.40;;;5.80;99.90;;;;;;4964236;28;21026;-73
2021/01/22 06:10:47;;;;;;;20.08;2.38;;;5.80;99.90;;;;;;4966429;28;20205;-74
2021/01/22 06:13:16;;;;;;;24.33;2.80;;;5.80;99.90;;;;;;4965384;28;20567;-75
2021/01/22 06:15:44;;;;;;;18.98;3.53;;;5.80;99.90;;;;;;4971914;28;20209;-75
2021/01/22 06:18:15;;;;;;;19.67;2.80;;;5.80;99.90;;;;;;4971146;28;20210;-75
2021/01/22 06:20:43;;;;;;;20.67;2.75;;;5.80;99.90;;;;;;4952681;28;20690;-75
2021/01/22 06:23:13;;;;;;;19.65;2.80;;;5.80;99.90;;;;;;4972883;28;20293;-74
2021/01/22 06:25:41;;;;;;;15.48;2.60;;;5.80;99.90;;;;;;4970281;28;20210;-75
2021/01/22 06:28:10;;;;;;;22.70;2.65;;;5.80;99.90;;;;;;4968103;28;20213;-76
2021/01/22 06:30:37;;;;;;;25.10;3.00;;;5.80;99.90;;;;;;4966165;28;20649;-75
2021/01/22 06:33:05;;;;;;;20.65;2.53;;;5.80;99.90;;;;;;4966540;28;20214;-74
2021/01/22 06:35:35;;;;;;;20.60;2.78;;;5.80;99.90;;;;;;4963373;28;20210;-75
2021/01/22 06:38:03;;;;;;;19.10;2.55;;;5.80;99.90;;;;;;4967272;28;20212;-74
2021/01/22 06:40:30;;;;;;;15.75;2.50;;;5.80;99.90;;;;;;4970218;28;20221;-74
2021/01/22 06:42:57;;;;;;;23.52;2.70;;;5.80;99.90;;;;;;4953101;28;20214;-74
2021/01/22 06:45:25;;;;;;;20.45;2.92;;;5.80;99.90;;;;;;4971672;28;20206;-76
2021/01/22 06:48:02;;;;;;;19.98;2.50;;;5.80;99.90;;;;;;4969801;28;20210;-76
2021/01/22 06:50:29;;;;;;;14.38;2.58;;;5.80;99.90;;;;;;4977829;28;20201;-75
2021/01/22 06:53:14;;;;;;;21.10;2.50;;;5.80;99.90;;;;;;4972409;28;20201;-77
2021/01/22 06:56:09;;;;;;;15.63;2.38;;;5.90;99.90;;;;;;4969682;28;20203;-75
2021/01/22 06:58:36;;;;;;;14.57;2.28;;;5.90;99.90;;;;;;4965356;28;20209;-76
2021/01/22 07:01:05;;;;;;;23.55;2.75;;;5.90;99.90;;;;;;4956072;28;20241;-76
2021/01/22 07:03:48;;;;;;;18.10;2.35;;;5.90;99.90;;;;;;4969709;28;20201;-76
2021/01/22 07:06:48;;;;;;;14.30;2.70;;;5.90;99.90;;;;;;4967614;28;20237;-75
2021/01/22 07:09:16;;;;;;;26.58;2.72;;;5.90;99.90;;;;;;4966497;28;20645;-77
2021/01/22 07:11:50;;;;;;;19.17;3.05;;;6.00;99.90;;;;;;4967393;28;20308;-75
2021/01/22 07:14:36;;;;;;;17.35;2.40;;;5.90;99.90;;;;;;4974218;28;20220;-75
2021/01/22 07:17:20;;;;;;;18.50;2.58;;;6.00;99.90;;;;;;4973280;28;20284;-74
2021/01/22 07:19:55;;;;;;;17.48;2.70;;;5.90;99.90;;;;;;4968301;28;20225;-74
2021/01/22 07:22:22;;;;;;;20.23;2.60;;;5.90;99.90;;;;;;4963861;28;20207;-75
2021/01/22 07:24:52;;;;;;;15.68;2.30;;;5.90;99.90;;;;;;4971493;28;20289;-75
2021/01/22 07:27:18;;;;;;;19.45;2.55;;;6.00;99.90;;;;;;4978617;28;20272;-73
2021/01/22 07:30:16;;;;;;;19.25;2.25;;;6.00;99.90;;;;;;4979212;28;20204;-75
2021/01/22 07:32:43;;;;;;;16.95;2.80;;;5.90;99.90;;;;;;4968426;28;20588;-74
2021/01/22 07:35:20;;;;;;;10.55;2.15;;;6.00;99.90;;;;;;4953951;28;20209;-74
2021/01/22 07:37:48;;;;;;;14.88;2.35;;;5.90;99.90;;;;;;4970216;28;20213;-74
2021/01/22 07:40:16;;;;;;;13.52;2.53;;;5.90;99.90;;;;;;4972383;28;20229;-73
2021/01/22 07:42:44;;;;;;;14.10;2.78;;;5.90;99.90;;;;;;4966689;28;20285;-74
2021/01/22 07:45:12;;;;;;;12.65;2.10;;;5.90;99.90;;;;;;4959123;28;20212;-74
2021/01/22 07:47:40;;;;;;;14.20;2.30;;;5.90;99.90;;;;;;4975917;28;20205;-73
2021/01/22 07:50:09;;;;;;;15.88;2.70;;;5.90;99.90;;;;;;4954590;28;20206;-76
2021/01/22 07:52:36;;;;;;;10.90;2.35;;;6.00;99.90;;;;;;4971898;28;20211;-75
2021/01/22 07:55:04;;;;;;;18.25;2.65;;;5.90;99.90;;;;;;4974341;28;20551;-74
2021/01/22 07:57:32;;;;;;;11.50;2.42;;;5.90;99.90;;;;;;4966096;28;20206;-74
2021/01/22 08:00:07;;;;;;;16.17;2.28;;;5.90;99.90;;;;;;4972055;28;20220;-74
2021/01/22 08:02:38;;;;;;;17.50;2.35;;;5.90;99.90;;;;;;4970923;28;20204;-75
2021/01/22 08:05:08;;;;;;;16.83;2.15;;;5.90;99.90;;;;;;4965999;28;20249;-74
2021/01/22 08:07:37;;;;;;;16.48;2.45;;;5.90;99.90;;;;;;4961564;28;20627;-72
2021/01/22 08:10:05;;;;;;;13.60;2.22;;;5.90;99.90;;;;;;4972728;28;20209;-75
2021/01/22 08:12:33;;;;;;;17.05;2.22;;;5.90;99.90;;;;;;4955612;28;20581;-73
2021/01/22 08:15:00;;;;;;;18.45;2.63;;;5.90;99.90;;;;;;4968164;28;20202;-75
2021/01/22 08:17:26;;;;;;;17.15;2.42;;;5.90;99.90;;;;;;4969969;28;20215;-74
2021/01/22 08:19:53;;;;;;;14.95;2.33;;;5.90;99.90;;;;;;4964235;28;20265;-74
2021/01/22 08:22:19;;;;;;;20.85;2.75;;;5.90;99.90;;;;;;4967227;28;20210;-75
2021/01/22 08:24:50;;;;;;;16.75;2.38;;;5.90;99.90;;;;;;4948829;28;20256;-74
2021/01/22 08:27:20;;;;;;;26.98;2.58;;;5.90;99.90;;;;;;4950911;28;20213;-75
2021/01/22 08:29:48;;;;;;;17.33;1.90;;;5.90;99.90;;;;;;4964531;28;20242;-74
2021/01/22 08:32:18;;;;;;;32.20;3.08;;;5.90;99.90;;;;;;4970764;28;20575;-74
2021/01/22 08:34:45;;;;;;;18.65;2.58;;;5.90;99.90;;;;;;4951619;28;20275;-76
2021/01/22 08:37:14;;;;;;;13.73;1.75;;;5.90;99.90;;;;;;4963667;28;20663;-75
2021/01/22 08:39:47;;;;;;;18.30;2.58;;;5.90;99.90;;;;;;4962913;28;20214;-74
2021/01/22 08:42:14;;;;;;;16.63;2.15;;;6.00;99.90;;;;;;4970042;28;20205;-73
2021/01/22 08:44:55;;;;;;;19.02;2.78;;;6.00;99.90;;;;;;4971792;28;20563;-74
2021/01/22 08:47:21;;;;;;;22.30;2.60;;;6.00;99.90;;;;;;4970109;28;20210;-74
2021/01/22 08:49:59;;;;;;;14.05;2.15;;;6.00;99.90;;;;;;4971881;28;20211;-74
2021/01/22 08:52:26;;;;;;;14.00;2.60;;;6.00;99.90;;;;;;4965036;28;20746;-74
2021/01/22 08:54:54;;;;;;;16.58;2.17;;;6.10;99.90;;;;;;4948699;28;20214;-74
2021/01/22 08:57:22;;;;;;;16.92;2.60;;;6.10;99.90;;;;;;4964614;28;20244;-74
2021/01/22 08:59:52;;;;;;;29.60;3.67;;;6.10;99.90;;;;;;4972242;28;20218;-73
2021/01/22 09:02:37;;;;;;;17.70;2.50;;;6.10;99.90;;;;;;4971176;28;20206;-75
2021/01/22 09:05:05;;;;;;;23.95;2.83;;;6.20;99.90;;;;;;4966893;28;20643;-74
2021/01/22 09:07:32;;;;;;;19.42;3.30;;;6.20;99.90;;;;;;4971479;28;20205;-74
2021/01/22 09:09:59;;;;;;;21.35;3.28;;;6.20;99.90;;;;;;4951417;28;20202;-74
2021/01/22 09:12:27;;;;;;;19.42;2.20;;;6.20;99.90;;;;;;4950860;28;20237;-74
2021/01/22 09:15:00;;;;;;;13.05;2.28;;;6.30;99.90;;;;;;4968913;28;20216;-74
2021/01/22 09:17:45;;;;;;;18.15;2.60;;;6.30;99.90;;;;;;4968618;28;20214;-73
2021/01/22 09:20:16;;;;;;;20.25;2.45;;;6.30;99.90;;;;;;4968594;28;20512;-74
2021/01/22 09:22:44;;;;;;;13.95;2.10;;;6.40;99.90;;;;;;4972381;28;20219;-74
2021/01/22 09:25:12;;;;;;;23.55;2.70;;;6.40;99.90;;;;;;4972507;28;20701;-74
2021/01/22 09:27:40;;;;;;;19.42;2.63;;;6.40;99.90;;;;;;4953942;28;20232;-74
2021/01/22 09:30:11;;;;;;;15.73;2.80;;;6.50;99.90;;;;;;4978757;28;20190;-73
2021/01/22 09:32:38;;;;;;;14.43;2.17;;;6.50;99.90;;;;;;4971113;28;20201;-74
2021/01/22 09:35:05;;;;;;;11.82;2.45;;;6.60;99.90;;;;;;4972222;28;20194;-73
2021/01/22 09:37:32;;;;;;;13.90;2.40;;;6.60;99.90;;;;;;4972575;28;20223;-74
2021/01/22 09:39:58;;;;;;;15.05;2.15;;;6.60;99.90;;;;;;4971126;28;20694;-73
2021/01/22 09:42:24;;;;;;;16.05;2.28;;;6.70;99.90;;;;;;4980368;28;20248;-74
2021/01/22 09:44:51;;;;;;;14.30;2.80;;;6.70;99.90;;;;;;4971998;28;20220;-74
2021/01/22 09:47:18;;;;;;;17.20;2.25;;;6.80;99.90;;;;;;4973444;28;20214;-74
2021/01/22 09:49:44;;;;;;;15.98;2.00;;;6.80;99.90;;;;;;4973044;28;20623;-74
2021/01/22 09:52:11;;;;;;;16.80;2.20;;;6.80;99.90;;;;;;4972227;28;20198;-75
2021/01/22 09:54:38;;;;;;;17.27;2.38;;;6.90;99.90;;;;;;4972752;28;20216;-74
2021/01/22 09:57:06;;;;;;;14.25;2.13;;;6.90;99.90;;;;;;4972088;28;20209;-73
2021/01/22 09:59:32;;;;;;;24.67;2.25;;;6.90;99.90;;;;;;4961905;28;20209;-74
2021/01/22 10:01:59;;;;;;;16.80;2.60;;;6.90;99.90;;;;;;4970943;28;20277;-74
2021/01/22 10:04:26;;;;;;;22.52;2.65;;;6.90;99.90;;;;;;4972565;28;20206;-74
2021/01/22 10:06:52;;;;;;;10.45;2.33;;;7.00;99.90;;;;;;4978460;28;20713;-74
2021/01/22 10:09:19;;;;;;;19.50;2.10;;;7.00;99.90;;;;;;4971951;28;20205;-73
2021/01/22 10:11:45;;;;;;;11.90;2.20;;;7.00;99.90;;;;;;4971881;28;20682;-74
2021/01/22 10:14:11;;;;;;;12.98;2.08;;;7.00;99.90;;;;;;4972024;28;20206;-75
2021/01/22 10:16:38;;;;;;;11.18;2.13;;;7.00;99.90;;;;;;4979061;28;20292;-73
2021/01/22 10:19:05;;;;;;;22.63;2.55;;;7.10;99.90;;;;;;4970370;28;20197;-73
2021/01/22 10:21:32;;;;;;;12.18;2.40;;;7.10;99.90;;;;;;4978472;28;20226;-74
2021/01/22 10:23:59;;;;;;;21.20;2.90;;;7.10;99.90;;;;;;4970796;28;20212;-73
2021/01/22 10:26:25;;;;;;;21.45;2.55;;;7.10;99.90;;;;;;4957358;28;20201;-74
2021/01/22 10:28:52;;;;;;;13.73;2.67;;;7.20;99.90;;;;;;4957264;28;20224;-73
2021/01/22 10:31:19;;;;;;;18.60;2.65;;;7.20;99.90;;;;;;4971193;28;21056;-73
2021/01/22 10:33:46;;;;;;;14.50;2.17;;;7.20;99.90;;;;;;4971482;28;20257;-73
2021/01/22 10:36:13;;;;;;;15.93;2.28;;;7.20;99.90;;;;;;4970961;28;20252;-73
2021/01/22 10:38:41;;;;;;;11.45;2.17;;;7.30;99.90;;;;;;4974439;28;20208;-74
2021/01/22 10:41:07;;;;;;;16.25;2.30;;;7.20;99.90;;;;;;4953572;28;20242;-74
2021/01/22 10:43:34;;;;;;;17.90;2.78;;;7.30;99.90;;;;;;4974834;28;20545;-74
2021/01/22 10:46:00;;;;;;;11.52;2.05;;;7.30;99.90;;;;;;4971195;28;20214;-74
2021/01/22 10:48:27;;;;;;;24.50;3.13;;;7.30;99.90;;;;;;4953465;28;20218;-74
2021/01/22 10:50:54;;;;;;;14.20;2.45;;;7.30;99.90;;;;;;4971160;28;20261;-74
2021/01/22 10:53:21;;;;;;;13.57;2.33;;;7.30;99.90;;;;;;4972235;28;20278;-73
2021/01/22 10:55:49;;;;;;;14.13;2.08;;;7.30;99.90;;;;;;4970701;28;20232;-73
2021/01/22 10:58:15;;;;;;;14.63;2.30;;;7.30;99.90;;;;;;4970966;28;20206;-74
2021/01/22 11:00:41;;;;;;;17.38;2.45;;;7.30;99.90;;;;;;4970173;28;20293;-73
2021/01/22 11:03:08;;;;;;;20.60;2.60;;;7.30;99.90;;;;;;4971645;28;20654;-74
2021/01/22 11:05:34;;;;;;;17.67;2.50;;;7.30;99.90;;;;;;4974982;28;20304;-73
2021/01/22 11:08:01;;;;;;;17.83;2.50;;;7.40;99.90;;;;;;4971431;28;20630;-74
2021/01/22 11:10:27;;;;;;;17.60;2.53;;;7.40;99.90;;;;;;4970194;28;20585;-74
2021/01/22 11:12:56;;;;;;;15.35;2.60;;;7.40;99.90;;;;;;4970998;28;20545;-74
2021/01/22 11:15:22;;;;;;;20.83;2.97;;;7.40;99.90;;;;;;4970123;28;20675;-74
2021/01/22 11:17:49;;;;;;;20.45;2.83;;;7.40;99.90;;;;;;4970965;28;20263;-74
2021/01/22 11:20:17;;;;;;;15.20;2.70;;;7.50;99.90;;;;;;4970482;28;20246;-73
2021/01/22 11:22:46;;;;;;;17.85;2.42;;;7.50;99.90;;;;;;4963231;28;21995;-74
2021/01/22 11:25:14;;;;;;;19.58;2.33;;;7.50;99.90;;;;;;4952737;28;20237;-74
2021/01/22 11:27:40;;;;;;;14.73;2.40;;;7.50;99.90;;;;;;4970104;28;20204;-73
2021/01/22 11:30:10;;;;;;;18.77;2.42;;;7.50;99.90;;;;;;4970180;28;20545;-74
2021/01/22 11:32:37;;;;;;;18.02;2.75;;;7.60;99.90;;;;;;4970258;28;20229;-74
2021/01/22 11:35:06;;;;;;;15.43;2.45;;;7.60;99.90;;;;;;4976553;28;20264;-74
2021/01/22 11:37:32;;;;;;;13.38;2.30;;;7.60;99.90;;;;;;4971414;28;20366;-72
2021/01/22 11:39:59;;;;;;;17.50;2.15;;;7.60;99.90;;;;;;4969715;28;20214;-72
2021/01/22 11:42:25;;;;;;;14.90;2.40;;;7.60;99.90;;;;;;4969984;28;20198;-72
2021/01/22 11:44:52;;;;;;;9.82;2.05;;;7.60;99.90;;;;;;4970597;28;20206;-72
2021/01/22 11:47:19;;;;;;;13.00;2.10;;;7.70;99.90;;;;;;4970647;28;20694;-74
2021/01/22 11:49:45;;;;;;;14.73;2.50;;;7.70;99.90;;;;;;4970158;28;20228;-73
2021/01/22 11:52:12;;;;;;;12.88;2.42;;;7.70;99.90;;;;;;4971222;28;20202;-72
2021/01/22 11:54:38;;;;;;;18.05;2.30;;;7.70;99.90;;;;;;4970744;28;20586;-73
2021/01/22 11:57:06;;;;;;;15.90;2.10;;;7.70;99.90;;;;;;4969511;28;20209;-72
2021/01/22 11:59:32;;;;;;;11.80;2.00;;;7.70;99.90;;;;;;4970460;28;20198;-73
2021/01/22 12:01:58;;;;;;;12.98;2.30;;;7.80;99.90;;;;;;4969641;28;20225;-72
2021/01/22 12:04:26;;;;;;;15.38;2.70;;;7.70;99.90;;;;;;4970565;28;20209;-73
2021/01/22 12:06:52;;;;;;;15.07;2.30;;;7.80;99.90;;;;;;4969636;28;20233;-73
2021/01/22 12:09:18;;;;;;;14.82;1.90;;;7.80;99.90;;;;;;4969131;28;20213;-73
2021/01/22 12:11:45;;;;;;;13.50;2.20;;;7.80;99.80;;;;;;4970239;28;20209;-72
2021/01/22 12:14:11;;;;;;;19.75;2.17;;;7.90;99.60;;;;;;4974247;28;20208;-74
2021/01/22 12:16:37;;;;;;;21.55;2.58;;;7.90;99.50;;;;;;4970863;28;20333;-74
2021/01/22 12:19:04;;;;;;;14.57;2.15;;;7.90;99.40;;;;;;4969376;28;20213;-72
2021/01/22 12:21:32;;;;;;;11.40;1.77;;;7.90;99.10;;;;;;4972538;28;20217;-73
2021/01/22 12:23:58;;;;;;;16.38;2.72;;;7.90;99.00;;;;;;4968587;28;20210;-72
2021/01/22 12:26:25;;;;;;;11.25;2.10;;;7.90;98.60;;;;;;4969780;28;20261;-73
2021/01/22 12:28:51;;;;;;;13.75;1.98;;;8.00;98.60;;;;;;4968909;28;20284;-76
2021/01/22 12:31:18;;;;;;;21.17;2.75;;;8.00;98.60;;;;;;4969339;28;20207;-74
2021/01/22 12:33:44;;;;;;;23.77;2.85;;;8.00;98.50;;;;;;4972490;28;21026;-74
2021/01/22 12:36:11;;;;;;;19.38;2.42;;;8.10;98.50;;;;;;4969270;28;20205;-71
2021/01/22 12:38:38;;;;;;;9.60;2.17;;;8.10;98.40;;;;;;4974203;28;20209;-74
2021/01/22 12:41:06;;;;;;;15.00;2.22;;;8.10;98.20;;;;;;4969958;28;20233;-74
2021/01/22 12:43:33;;;;;;;20.20;2.20;;;8.20;98.20;;;;;;4972454;28;20210;-74
2021/01/22 12:46:00;;;;;;;23.90;2.25;;;8.20;98.10;;;;;;4969185;28;20220;-75
2021/01/22 12:48:26;;;;;;;14.57;2.03;;;8.30;98.00;;;;;;4951636;28;20206;-74
2021/01/22 12:50:53;;;;;;;12.35;2.53;;;8.30;97.90;;;;;;4968540;28;20619;-75
2021/01/22 12:53:20;;;;;;;11.93;2.15;;;8.30;97.80;;;;;;4973575;28;20210;-74
2021/01/22 12:55:47;;;;;;;13.52;2.30;;;8.30;97.60;;;;;;4955362;28;20214;-74